sensor_id;sensor_type;location;lat;lon;timestamp;pressure;altitude;pressure_sealevel;temperature;humidity
30302;BME280;17111;52.130;5.028;2023-09-07T00:02:06;102076.03;;;26.70;49.96
30302;BME280;17111;52.130;5.028;2023-09-07T00:04:32;102076.22;;;26.69;50.25
30302;BME280;17111;52.130;5.028;2023-09-07T00:06:59;102068.44;;;26.66;49.98
30302;BME280;17111;52.130;5.028;2023-09-07T00:09:27;102066.56;;;26.66;50.12
30302;BME280;17111;52.130;5.028;2023-09-07T00:11:53;102063.16;;;26.64;50.28
30302;BME280;17111;52.130;5.028;2023-09-07T00:14:20;102062.31;;;26.64;50.33
30302;BME280;17111;52.130;5.028;2023-09-07T00:16:47;102057.91;;;26.63;50.32
30302;BME280;17111;52.130;5.028;2023-09-07T00:19:13;102057.22;;;26.61;50.19
30302;BME280;17111;52.130;5.028;2023-09-07T00:21:40;102059.31;;;26.58;50.48
30302;BME280;17111;52.130;5.028;2023-09-07T00:24:07;102063.06;;;26.57;50.55
30302;BME280;17111;52.130;5.028;2023-09-07T00:26:33;102051.50;;;26.55;50.42
30302;BME280;17111;52.130;5.028;2023-09-07T00:29:00;102051.69;;;26.54;50.27
30302;BME280;17111;52.130;5.028;2023-09-07T00:31:27;102057.13;;;26.54;50.54
30302;BME280;17111;52.130;5.028;2023-09-07T00:33:53;102052.88;;;26.51;50.44
30302;BME280;17111;52.130;5.028;2023-09-07T00:36:20;102055.81;;;26.50;50.49
30302;BME280;17111;52.130;5.028;2023-09-07T00:38:47;102053.25;;;26.48;50.36
30302;BME280;17111;52.130;5.028;2023-09-07T00:41:13;102047.16;;;26.46;50.39
30302;BME280;17111;52.130;5.028;2023-09-07T00:43:40;102050.03;;;26.45;50.51
30302;BME280;17111;52.130;5.028;2023-09-07T00:46:08;102052.75;;;26.45;50.60
30302;BME280;17111;52.130;5.028;2023-09-07T00:48:35;102040.34;;;26.42;50.51
30302;BME280;17111;52.130;5.028;2023-09-07T00:51:02;102051.22;;;26.42;50.38
30302;BME280;17111;52.130;5.028;2023-09-07T00:53:29;102040.50;;;26.41;50.44
30302;BME280;17111;52.130;5.028;2023-09-07T00:55:56;102044.28;;;26.40;50.65
30302;BME280;17111;52.130;5.028;2023-09-07T00:58:24;102041.56;;;26.40;50.44
30302;BME280;17111;52.130;5.028;2023-09-07T01:00:51;102043.44;;;26.39;50.54
30302;BME280;17111;52.130;5.028;2023-09-07T01:03:17;102045.66;;;26.36;50.53
30302;BME280;17111;52.130;5.028;2023-09-07T01:08:31;102039.56;;;26.33;50.63
30302;BME280;17111;52.130;5.028;2023-09-07T01:10:58;102038.69;;;26.33;50.71
30302;BME280;17111;52.130;5.028;2023-09-07T01:13:25;102042.44;;;26.32;50.73
30302;BME280;17111;52.130;5.028;2023-09-07T01:15:52;102032.81;;;26.29;51.13
30302;BME280;17111;52.130;5.028;2023-09-07T01:18:19;102050.94;;;26.29;50.96
30302;BME280;17111;52.130;5.028;2023-09-07T01:20:52;102030.44;;;26.26;50.97
30302;BME280;17111;52.130;5.028;2023-09-07T01:23:19;102035.19;;;26.24;50.96
30302;BME280;17111;52.130;5.028;2023-09-07T01:25:47;102032.66;;;26.23;51.03
30302;BME280;17111;52.130;5.028;2023-09-07T01:28:14;102033.69;;;26.22;50.85
30302;BME280;17111;52.130;5.028;2023-09-07T01:30:41;102034.03;;;26.19;50.90
30302;BME280;17111;52.130;5.028;2023-09-07T01:33:08;102038.66;;;26.18;51.09
30302;BME280;17111;52.130;5.028;2023-09-07T01:35:36;102036.97;;;26.17;51.09
30302;BME280;17111;52.130;5.028;2023-09-07T01:38:03;102035.44;;;26.15;50.79
30302;BME280;17111;52.130;5.028;2023-09-07T01:40:30;102032.03;;;26.13;51.18
30302;BME280;17111;52.130;5.028;2023-09-07T01:42:56;102030.34;;;26.12;51.24
30302;BME280;17111;52.130;5.028;2023-09-07T01:45:23;102026.97;;;26.09;51.19
30302;BME280;17111;52.130;5.028;2023-09-07T01:47:50;102029.84;;;26.08;51.19
30302;BME280;17111;52.130;5.028;2023-09-07T01:50:18;102029.19;;;26.06;51.31
30302;BME280;17111;52.130;5.028;2023-09-07T01:52:47;102033.94;;;26.04;51.34
30302;BME280;17111;52.130;5.028;2023-09-07T01:55:17;102034.97;;;26.03;51.37
30302;BME280;17111;52.130;5.028;2023-09-07T01:57:44;102028.88;;;26.01;51.21
30302;BME280;17111;52.130;5.028;2023-09-07T02:00:11;102030.09;;;25.98;51.36
30302;BME280;17111;52.130;5.028;2023-09-07T02:02:38;102026.53;;;25.98;51.28
30302;BME280;17111;52.130;5.028;2023-09-07T02:05:05;102025.84;;;25.96;51.33
30302;BME280;17111;52.130;5.028;2023-09-07T02:07:32;102038.59;;;25.95;51.46
30302;BME280;17111;52.130;5.028;2023-09-07T02:09:58;102027.06;;;25.93;51.46
30302;BME280;17111;52.130;5.028;2023-09-07T02:12:25;102034.34;;;25.93;51.74
30302;BME280;17111;52.130;5.028;2023-09-07T02:14:52;102033.69;;;25.91;51.55
30302;BME280;17111;52.130;5.028;2023-09-07T02:17:18;102029.28;;;25.90;51.41
30302;BME280;17111;52.130;5.028;2023-09-07T02:19:45;102042.03;;;25.89;51.76
30302;BME280;17111;52.130;5.028;2023-09-07T02:22:12;102043.03;;;25.88;51.74
30302;BME280;17111;52.130;5.028;2023-09-07T02:24:38;102035.91;;;25.87;51.65
30302;BME280;17111;52.130;5.028;2023-09-07T02:27:05;102037.59;;;25.88;51.68
30302;BME280;17111;52.130;5.028;2023-09-07T02:29:32;102039.47;;;25.88;51.58
30302;BME280;17111;52.130;5.028;2023-09-07T02:31:58;102042.19;;;25.88;51.60
30302;BME280;17111;52.130;5.028;2023-09-07T02:34:25;102036.94;;;25.86;51.61
30302;BME280;17111;52.130;5.028;2023-09-07T02:36:51;102034.38;;;25.84;51.80
30302;BME280;17111;52.130;5.028;2023-09-07T02:39:18;102034.38;;;25.84;51.63
30302;BME280;17111;52.130;5.028;2023-09-07T02:41:44;102033.53;;;25.84;51.75
30302;BME280;17111;52.130;5.028;2023-09-07T02:44:12;102032.69;;;25.83;51.56
30302;BME280;17111;52.130;5.028;2023-09-07T02:46:39;102035.41;;;25.83;51.77
30302;BME280;17111;52.130;5.028;2023-09-07T02:49:06;102035.41;;;25.83;51.51
30302;BME280;17111;52.130;5.028;2023-09-07T02:51:32;102035.41;;;25.83;51.63
30302;BME280;17111;52.130;5.028;2023-09-07T02:54:01;102035.41;;;25.83;51.84
30302;BME280;17111;52.130;5.028;2023-09-07T02:56:27;102030.16;;;25.82;51.61
30302;BME280;17111;52.130;5.028;2023-09-07T02:58:54;102038.31;;;25.82;51.60
30302;BME280;17111;52.130;5.028;2023-09-07T03:01:21;102035.59;;;25.82;51.55
30302;BME280;17111;52.130;5.028;2023-09-07T03:03:48;102035.59;;;25.82;51.65
30302;BME280;17111;52.130;5.028;2023-09-07T03:06:16;102034.75;;;25.81;51.69
30302;BME280;17111;52.130;5.028;2023-09-07T03:08:43;102038.47;;;25.80;51.49
30302;BME280;17111;52.130;5.028;2023-09-07T03:11:10;102042.91;;;25.81;51.62
30302;BME280;17111;52.130;5.028;2023-09-07T03:13:37;102047.50;;;25.81;51.77
30302;BME280;17111;52.130;5.028;2023-09-07T03:16:04;102043.06;;;25.80;51.68
30302;BME280;17111;52.130;5.028;2023-09-07T03:18:31;102036.78;;;25.79;51.70
30302;BME280;17111;52.130;5.028;2023-09-07T03:21:01;102038.84;;;25.77;51.81
30302;BME280;17111;52.130;5.028;2023-09-07T03:23:32;102037.94;;;25.77;51.67
30302;BME280;17111;52.130;5.028;2023-09-07T03:25:59;102037.94;;;25.77;51.67
30302;BME280;17111;52.130;5.028;2023-09-07T03:28:26;102043.56;;;25.75;51.74
30302;BME280;17111;52.130;5.028;2023-09-07T03:30:55;102028.31;;;25.74;51.74
30302;BME280;17111;52.130;5.028;2023-09-07T03:33:22;102029.34;;;25.73;51.54
30302;BME280;17111;52.130;5.028;2023-09-07T03:35:49;102032.03;;;25.73;51.57
30302;BME280;17111;52.130;5.028;2023-09-07T03:38:15;102029.50;;;25.72;51.75
30302;BME280;17111;52.130;5.028;2023-09-07T03:40:42;102034.06;;;25.71;51.55
30302;BME280;17111;52.130;5.028;2023-09-07T03:43:09;102033.22;;;25.71;51.69
30302;BME280;17111;52.130;5.028;2023-09-07T03:45:36;102026.13;;;25.70;51.86
30302;BME280;17111;52.130;5.028;2023-09-07T03:48:02;102032.53;;;25.69;51.88
30302;BME280;17111;52.130;5.028;2023-09-07T03:50:29;102026.47;;;25.67;51.60
30302;BME280;17111;52.130;5.028;2023-09-07T03:52:56;102024.78;;;25.66;51.78
30302;BME280;17111;52.130;5.028;2023-09-07T03:55:23;102032.91;;;25.66;51.68
30302;BME280;17111;52.130;5.028;2023-09-07T03:57:50;102025.78;;;25.65;51.85
30302;BME280;17111;52.130;5.028;2023-09-07T04:00:16;102027.66;;;25.64;51.75
30302;BME280;17111;52.130;5.028;2023-09-07T04:02:44;102034.09;;;25.63;51.83
30302;BME280;17111;52.130;5.028;2023-09-07T04:05:11;102034.94;;;25.64;51.65
30302;BME280;17111;52.130;5.028;2023-09-07T04:07:38;102034.28;;;25.62;51.67
30302;BME280;17111;52.130;5.028;2023-09-07T04:10:05;102033.44;;;25.61;51.82
30302;BME280;17111;52.130;5.028;2023-09-07T04:12:32;102038.88;;;25.61;51.91
30302;BME280;17111;52.130;5.028;2023-09-07T04:15:03;102036.16;;;25.61;51.99
30302;BME280;17111;52.130;5.028;2023-09-07T04:17:30;102035.28;;;25.60;51.79
30302;BME280;17111;52.130;5.028;2023-09-07T04:19:59;102031.75;;;25.60;51.95
30302;BME280;17111;52.130;5.028;2023-09-07T04:22:25;102032.75;;;25.59;51.98
30302;BME280;17111;52.130;5.028;2023-09-07T04:24:52;102030.25;;;25.57;52.24
30302;BME280;17111;52.130;5.028;2023-09-07T04:27:18;102028.38;;;25.58;52.08
30302;BME280;17111;52.130;5.028;2023-09-07T04:29:45;102025.81;;;25.56;51.96
30302;BME280;17111;52.130;5.028;2023-09-07T04:32:12;102029.56;;;25.55;51.90
30302;BME280;17111;52.130;5.028;2023-09-07T04:34:38;102019.72;;;25.54;51.68
30302;BME280;17111;52.130;5.028;2023-09-07T04:37:05;102025.34;;;25.53;52.08
30302;BME280;17111;52.130;5.028;2023-09-07T04:39:31;102027.19;;;25.52;51.80
30302;BME280;17111;52.130;5.028;2023-09-07T04:41:58;102031.09;;;25.50;52.00
30302;BME280;17111;52.130;5.028;2023-09-07T04:44:26;102036.53;;;25.50;51.88
30302;BME280;17111;52.130;5.028;2023-09-07T04:46:56;102027.56;;;25.49;51.89
30302;BME280;17111;52.130;5.028;2023-09-07T04:49:24;102041.13;;;25.49;51.82
30302;BME280;17111;52.130;5.028;2023-09-07T04:51:53;102040.28;;;25.49;51.86
30302;BME280;17111;52.130;5.028;2023-09-07T04:54:20;102041.28;;;25.48;52.07
30302;BME280;17111;52.130;5.028;2023-09-07T04:56:47;102043.84;;;25.49;52.13
30302;BME280;17111;52.130;5.028;2023-09-07T04:59:13;102044.84;;;25.48;51.80
30302;BME280;17111;52.130;5.028;2023-09-07T05:01:41;102049.41;;;25.48;51.71
30302;BME280;17111;52.130;5.028;2023-09-07T05:04:07;102049.41;;;25.48;51.79
30302;BME280;17111;52.130;5.028;2023-09-07T05:06:34;102041.47;;;25.46;51.87
30302;BME280;17111;52.130;5.028;2023-09-07T05:09:03;102051.47;;;25.46;51.93
30302;BME280;17111;52.130;5.028;2023-09-07T05:11:30;102052.31;;;25.46;52.08
30302;BME280;17111;52.130;5.028;2023-09-07T05:13:57;102048.75;;;25.46;51.98
30302;BME280;17111;52.130;5.028;2023-09-07T05:16:23;102049.75;;;25.45;52.02
30302;BME280;17111;52.130;5.028;2023-09-07T05:18:50;102052.31;;;25.46;51.67
30302;BME280;17111;52.130;5.028;2023-09-07T05:21:17;102060.47;;;25.46;52.06
30302;BME280;17111;52.130;5.028;2023-09-07T05:23:43;102057.75;;;25.46;52.18
30302;BME280;17111;52.130;5.028;2023-09-07T05:26:10;102062.34;;;25.46;51.98
30302;BME280;17111;52.130;5.028;2023-09-07T05:28:37;102063.19;;;25.46;51.87
30302;BME280;17111;52.130;5.028;2023-09-07T05:31:03;102059.44;;;25.47;51.76
30302;BME280;17111;52.130;5.028;2023-09-07T05:33:30;102068.44;;;25.48;51.92
30302;BME280;17111;52.130;5.028;2023-09-07T05:35:57;102060.13;;;25.49;51.73
30302;BME280;17111;52.130;5.028;2023-09-07T05:38:23;102062.84;;;25.49;51.73
30302;BME280;17111;52.130;5.028;2023-09-07T05:40:50;102068.28;;;25.49;51.77
30302;BME280;17111;52.130;5.028;2023-09-07T05:43:20;102064.88;;;25.47;51.58
30302;BME280;17111;52.130;5.028;2023-09-07T05:45:47;102069.28;;;25.48;51.51
30302;BME280;17111;52.130;5.028;2023-09-07T05:48:14;102073.84;;;25.48;51.72
30302;BME280;17111;52.130;5.028;2023-09-07T05:50:44;102068.63;;;25.46;51.89
30302;BME280;17111;52.130;5.028;2023-09-07T05:53:11;102074.69;;;25.48;51.62
30302;BME280;17111;52.130;5.028;2023-09-07T05:55:38;102080.31;;;25.47;51.63
30302;BME280;17111;52.130;5.028;2023-09-07T05:58:06;102073.19;;;25.46;51.59
30302;BME280;17111;52.130;5.028;2023-09-07T06:00:36;102070.63;;;25.44;51.79
30302;BME280;17111;52.130;5.028;2023-09-07T06:03:06;102067.78;;;25.46;51.92
30302;BME280;17111;52.130;5.028;2023-09-07T06:05:36;102068.75;;;25.45;51.94
30302;BME280;17111;52.130;5.028;2023-09-07T06:08:03;102073.19;;;25.46;52.00
30302;BME280;17111;52.130;5.028;2023-09-07T06:10:30;102076.91;;;25.45;51.69
30302;BME280;17111;52.130;5.028;2023-09-07T06:12:57;102082.19;;;25.46;51.69
30302;BME280;17111;52.130;5.028;2023-09-07T06:15:27;102082.00;;;25.48;51.87
30302;BME280;17111;52.130;5.028;2023-09-07T06:17:54;102087.28;;;25.49;51.74
30302;BME280;17111;52.130;5.028;2023-09-07T06:20:21;102096.91;;;25.52;51.91
30302;BME280;17111;52.130;5.028;2023-09-07T06:22:47;102095.06;;;25.52;52.11
30302;BME280;17111;52.130;5.028;2023-09-07T06:25:15;102097.44;;;25.55;51.60
30302;BME280;17111;52.130;5.028;2023-09-07T06:27:42;102101.81;;;25.56;51.60
30302;BME280;17111;52.130;5.028;2023-09-07T06:30:10;102097.09;;;25.58;51.81
30302;BME280;17111;52.130;5.028;2023-09-07T06:32:36;102094.03;;;25.62;51.41
30302;BME280;17111;52.130;5.028;2023-09-07T06:35:03;102097.41;;;25.64;51.60
30302;BME280;17111;52.130;5.028;2023-09-07T06:37:30;102101.81;;;25.65;51.47
30302;BME280;17111;52.130;5.028;2023-09-07T06:39:57;102107.94;;;25.67;51.46
30302;BME280;17111;52.130;5.028;2023-09-07T06:42:23;102109.63;;;25.68;51.26
30302;BME280;17111;52.130;5.028;2023-09-07T06:44:50;102113.03;;;25.70;51.01
30302;BME280;17111;52.130;5.028;2023-09-07T06:47:18;102113.88;;;25.70;51.08
30302;BME280;17111;52.130;5.028;2023-09-07T06:49:45;102107.41;;;25.71;50.96
30302;BME280;17111;52.130;5.028;2023-09-07T06:52:11;102101.97;;;25.71;50.97
30302;BME280;17111;52.130;5.028;2023-09-07T06:54:38;102104.69;;;25.71;50.91
30302;BME280;17111;52.130;5.028;2023-09-07T06:57:08;102109.28;;;25.71;50.92
30302;BME280;17111;52.130;5.028;2023-09-07T06:59:37;102110.13;;;25.71;51.09
30302;BME280;17111;52.130;5.028;2023-09-07T07:02:05;102106.38;;;25.72;51.03
30302;BME280;17111;52.130;5.028;2023-09-07T07:04:32;102102.81;;;25.72;51.24
30302;BME280;17111;52.130;5.028;2023-09-07T07:06:58;102109.09;;;25.72;51.20
30302;BME280;17111;52.130;5.028;2023-09-07T07:09:27;102107.22;;;25.73;50.93
30302;BME280;17111;52.130;5.028;2023-09-07T07:11:55;102108.94;;;25.74;50.93
30302;BME280;17111;52.130;5.028;2023-09-07T07:14:21;102112.66;;;25.73;51.02
30302;BME280;17111;52.130;5.028;2023-09-07T07:16:48;102108.94;;;25.74;50.95
30302;BME280;17111;52.130;5.028;2023-09-07T07:19:15;102109.94;;;25.73;50.96
30302;BME280;17111;52.130;5.028;2023-09-07T07:21:41;102114.38;;;25.74;50.88
30302;BME280;17111;52.130;5.028;2023-09-07T07:24:08;102108.94;;;25.74;51.01
30302;BME280;17111;52.130;5.028;2023-09-07T07:26:35;102108.94;;;25.74;51.13
30302;BME280;17111;52.130;5.028;2023-09-07T07:29:02;102109.78;;;25.74;50.88
30302;BME280;17111;52.130;5.028;2023-09-07T07:31:31;102111.47;;;25.75;50.72
30302;BME280;17111;52.130;5.028;2023-09-07T07:33:58;102108.75;;;25.75;50.92
30302;BME280;17111;52.130;5.028;2023-09-07T07:36:24;102106.03;;;25.75;50.99
30302;BME280;17111;52.130;5.028;2023-09-07T07:38:51;102113.16;;;25.76;51.03
30302;BME280;17111;52.130;5.028;2023-09-07T07:41:18;102108.56;;;25.77;51.11
30302;BME280;17111;52.130;5.028;2023-09-07T07:43:44;102104.88;;;25.78;50.77
30302;BME280;17111;52.130;5.028;2023-09-07T07:46:11;102103.00;;;25.78;50.62
30302;BME280;17111;52.130;5.028;2023-09-07T07:48:38;102102.81;;;25.80;50.78
30302;BME280;17111;52.130;5.028;2023-09-07T07:51:04;102103.66;;;25.80;50.92
30302;BME280;17111;52.130;5.028;2023-09-07T07:53:35;102099.94;;;25.81;50.83
30302;BME280;17111;52.130;5.028;2023-09-07T07:56:02;102092.66;;;25.82;50.87
30302;BME280;17111;52.130;5.028;2023-09-07T07:58:29;102094.31;;;25.83;50.68
30302;BME280;17111;52.130;5.028;2023-09-07T08:00:56;102083.47;;;25.83;51.03
30302;BME280;17111;52.130;5.028;2023-09-07T08:03:25;102082.44;;;25.84;50.84
30302;BME280;17111;52.130;5.028;2023-09-07T08:05:52;102087.03;;;25.83;50.83
30302;BME280;17111;52.130;5.028;2023-09-07T08:08:18;102085.00;;;25.86;50.59
30302;BME280;17111;52.130;5.028;2023-09-07T08:10:45;102083.97;;;25.87;50.65
30302;BME280;17111;52.130;5.028;2023-09-07T08:13:12;102082.94;;;25.88;50.77
30302;BME280;17111;52.130;5.028;2023-09-07T08:15:40;102078.34;;;25.88;50.68
30302;BME280;17111;52.130;5.028;2023-09-07T08:18:07;102071.03;;;25.89;50.72
30302;BME280;17111;52.130;5.028;2023-09-07T08:20:35;102073.59;;;25.90;50.60
30302;BME280;17111;52.130;5.028;2023-09-07T08:23:03;102067.13;;;25.91;50.98
30302;BME280;17111;52.130;5.028;2023-09-07T08:25:34;102067.97;;;25.92;50.57
30302;BME280;17111;52.130;5.028;2023-09-07T08:28:00;102069.66;;;25.93;50.75
30302;BME280;17111;52.130;5.028;2023-09-07T08:30:32;102067.81;;;25.93;50.53
30302;BME280;17111;52.130;5.028;2023-09-07T08:33:00;102061.34;;;25.94;50.63
30302;BME280;17111;52.130;5.028;2023-09-07T08:35:29;102061.16;;;25.96;50.66
30302;BME280;17111;52.130;5.028;2023-09-07T08:37:57;102056.56;;;25.96;50.67
30302;BME280;17111;52.130;5.028;2023-09-07T08:40:26;102051.97;;;25.97;50.61
30302;BME280;17111;52.130;5.028;2023-09-07T08:42:54;102056.41;;;25.98;50.77
30302;BME280;17111;52.130;5.028;2023-09-07T08:45:25;102051.81;;;25.98;50.51
30302;BME280;17111;52.130;5.028;2023-09-07T08:47:52;102048.06;;;25.99;50.55
30302;BME280;17111;52.130;5.028;2023-09-07T08:50:21;102048.75;;;26.01;50.50
30302;BME280;17111;52.130;5.028;2023-09-07T08:52:52;102052.31;;;26.02;50.34
30302;BME280;17111;52.130;5.028;2023-09-07T08:55:20;102047.72;;;26.02;50.33
30302;BME280;17111;52.130;5.028;2023-09-07T08:57:47;102050.25;;;26.04;50.49
30302;BME280;17111;52.130;5.028;2023-09-07T09:00:14;102045.66;;;26.04;50.52
30302;BME280;17111;52.130;5.028;2023-09-07T09:02:46;102051.78;;;26.06;50.33
30302;BME280;17111;52.130;5.028;2023-09-07T09:05:23;102050.75;;;26.07;50.50
30302;BME280;17111;52.130;5.028;2023-09-07T09:08:00;102047.19;;;26.07;50.40
30302;BME280;17111;52.130;5.028;2023-09-07T09:10:27;102055.84;;;26.11;50.38
30302;BME280;17111;52.130;5.028;2023-09-07T09:12:53;102043.94;;;26.12;50.44
30302;BME280;17111;52.130;5.028;2023-09-07T09:15:21;102044.78;;;26.12;50.30
30302;BME280;17111;52.130;5.028;2023-09-07T09:17:48;102044.63;;;26.14;50.44
30302;BME280;17111;52.130;5.028;2023-09-07T09:20:25;102051.75;;;26.15;50.40
30302;BME280;17111;52.130;5.028;2023-09-07T09:22:53;102050.34;;;26.19;50.45
30302;BME280;17111;52.130;5.028;2023-09-07T09:25:21;102048.47;;;26.19;50.21
30302;BME280;17111;52.130;5.028;2023-09-07T09:27:48;102041.84;;;26.22;50.45
30302;BME280;17111;52.130;5.028;2023-09-07T09:30:14;102043.53;;;26.23;50.39
30302;BME280;17111;52.130;5.028;2023-09-07T09:32:43;102041.31;;;26.26;50.47
30302;BME280;17111;52.130;5.028;2023-09-07T09:35:10;102037.38;;;26.29;50.52
30302;BME280;17111;52.130;5.028;2023-09-07T09:37:44;102042.44;;;26.32;50.55
30302;BME280;17111;52.130;5.028;2023-09-07T09:40:13;102041.75;;;26.38;50.73
30302;BME280;17111;52.130;5.028;2023-09-07T09:42:43;102039.50;;;26.42;50.75
30302;BME280;17111;52.130;5.028;2023-09-07T09:45:11;102040.69;;;26.47;50.49
30302;BME280;17111;52.130;5.028;2023-09-07T09:47:40;102041.66;;;26.54;50.81
30302;BME280;17111;52.130;5.028;2023-09-07T09:50:09;102040.91;;;26.61;50.86
30302;BME280;17111;52.130;5.028;2023-09-07T09:52:37;102038.31;;;26.67;50.82
30302;BME280;17111;52.130;5.028;2023-09-07T09:55:06;102033.00;;;26.74;50.31
30302;BME280;17111;52.130;5.028;2023-09-07T09:57:39;102029.53;;;26.80;50.71
30302;BME280;17111;52.130;5.028;2023-09-07T10:00:06;102033.44;;;26.86;50.66
30302;BME280;17111;52.130;5.028;2023-09-07T10:03:05;102036.22;;;26.92;50.54
30302;BME280;17111;52.130;5.028;2023-09-07T10:05:34;102022.75;;;26.99;50.42
30302;BME280;17111;52.130;5.028;2023-09-07T10:08:03;102027.44;;;27.05;49.94
30302;BME280;17111;52.130;5.028;2023-09-07T10:10:36;102028.63;;;27.11;50.30
30302;BME280;17111;52.130;5.028;2023-09-07T10:13:03;102024.28;;;27.16;50.39
30302;BME280;17111;52.130;5.028;2023-09-07T10:15:31;102028.16;;;27.22;50.44
30302;BME280;17111;52.130;5.028;2023-09-07T10:18:13;102029.28;;;27.27;50.05
30302;BME280;17111;52.130;5.028;2023-09-07T10:20:58;102022.44;;;27.31;49.75
30302;BME280;17111;52.130;5.028;2023-09-07T10:23:41;102020.66;;;27.39;49.32
30302;BME280;17111;52.130;5.028;2023-09-07T10:26:12;102018.22;;;27.44;49.19
30302;BME280;17111;52.130;5.028;2023-09-07T10:28:39;102016.81;;;27.48;49.36
30302;BME280;17111;52.130;5.028;2023-09-07T10:31:25;102011.63;;;27.53;49.46
30302;BME280;17111;52.130;5.028;2023-09-07T10:34:10;102012.78;;;27.59;49.71
30302;BME280;17111;52.130;5.028;2023-09-07T10:36:39;102018.50;;;27.64;49.47
30302;BME280;17111;52.130;5.028;2023-09-07T10:39:05;102016.22;;;27.67;49.37
30302;BME280;17111;52.130;5.028;2023-09-07T10:41:43;102016.69;;;27.71;49.18
30302;BME280;17111;52.130;5.028;2023-09-07T10:44:10;102014.28;;;27.76;49.11
30302;BME280;17111;52.130;5.028;2023-09-07T10:46:40;102015.59;;;27.80;49.12
30302;BME280;17111;52.130;5.028;2023-09-07T10:49:08;102020.47;;;27.85;48.90
30302;BME280;17111;52.130;5.028;2023-09-07T10:51:45;102003.94;;;27.86;48.85
30302;BME280;17111;52.130;5.028;2023-09-07T10:54:23;102008.81;;;27.91;49.08
30302;BME280;17111;52.130;5.028;2023-09-07T10:56:50;102012.00;;;27.94;49.26
30302;BME280;17111;52.130;5.028;2023-09-07T10:59:17;102006.16;;;27.97;48.90
30302;BME280;17111;52.130;5.028;2023-09-07T11:01:44;102005.97;;;27.99;48.25
30302;BME280;17111;52.130;5.028;2023-09-07T11:04:11;102010.16;;;28.01;47.97
30302;BME280;17111;52.130;5.028;2023-09-07T11:06:40;102000.09;;;28.02;48.06
30302;BME280;17111;52.130;5.028;2023-09-07T11:09:08;102002.00;;;28.01;48.47
30302;BME280;17111;52.130;5.028;2023-09-07T11:11:38;101996.53;;;28.01;48.64
30302;BME280;17111;52.130;5.028;2023-09-07T11:14:05;101997.59;;;28.00;48.36
30302;BME280;17111;52.130;5.028;2023-09-07T11:16:34;101993.19;;;27.99;48.12
30302;BME280;17111;52.130;5.028;2023-09-07T11:19:06;101986.06;;;27.98;48.55
30302;BME280;17111;52.130;5.028;2023-09-07T11:21:34;101985.19;;;27.98;47.68
30302;BME280;17111;52.130;5.028;2023-09-07T11:24:02;101981.63;;;27.97;48.53
30302;BME280;17111;52.130;5.028;2023-09-07T11:26:45;101985.19;;;27.98;47.82
30302;BME280;17111;52.130;5.028;2023-09-07T11:29:16;101978.72;;;27.99;47.85
30302;BME280;17111;52.130;5.028;2023-09-07T11:31:44;101974.28;;;27.98;47.95
30302;BME280;17111;52.130;5.028;2023-09-07T11:34:12;101974.28;;;27.98;48.43
30302;BME280;17111;52.130;5.028;2023-09-07T11:36:40;101977.00;;;27.98;48.31
30302;BME280;17111;52.130;5.028;2023-09-07T11:39:07;101981.44;;;27.99;47.76
30302;BME280;17111;52.130;5.028;2023-09-07T11:41:43;101981.44;;;27.99;48.14
30302;BME280;17111;52.130;5.028;2023-09-07T11:44:10;101971.38;;;27.99;48.06
30302;BME280;17111;52.130;5.028;2023-09-07T11:46:38;101978.50;;;28.00;47.69
30302;BME280;17111;52.130;5.028;2023-09-07T11:49:05;101983.59;;;28.03;48.02
30302;BME280;17111;52.130;5.028;2023-09-07T11:51:32;101969.97;;;28.03;48.02
30302;BME280;17111;52.130;5.028;2023-09-07T11:54:02;101967.03;;;28.05;47.93
30302;BME280;17111;52.130;5.028;2023-09-07T11:56:28;101966.44;;;28.10;48.08
30302;BME280;17111;52.130;5.028;2023-09-07T11:58:55;101968.63;;;28.14;47.18
30302;BME280;17111;52.130;5.028;2023-09-07T12:01:22;101965.09;;;28.20;47.18
30302;BME280;17111;52.130;5.028;2023-09-07T12:03:49;101977.75;;;28.28;47.31
30302;BME280;17111;52.130;5.028;2023-09-07T12:06:16;101970.50;;;28.35;46.87
30302;BME280;17111;52.130;5.028;2023-09-07T12:09:02;101976.00;;;28.42;47.12
30302;BME280;17111;52.130;5.028;2023-09-07T12:11:29;101966.84;;;28.49;46.51
30302;BME280;17111;52.130;5.028;2023-09-07T12:13:57;101964.19;;;28.56;46.51
30302;BME280;17111;52.130;5.028;2023-09-07T12:16:25;101960.66;;;28.62;46.31
30302;BME280;17111;52.130;5.028;2023-09-07T12:18:53;101961.78;;;28.68;46.21
30302;BME280;17111;52.130;5.028;2023-09-07T12:21:20;101962.03;;;28.73;45.81
30302;BME280;17111;52.130;5.028;2023-09-07T12:23:47;101965.00;;;28.78;46.53
30302;BME280;17111;52.130;5.028;2023-09-07T12:26:14;101962.53;;;28.83;45.56
30302;BME280;17111;52.130;5.028;2023-09-07T12:28:40;101961.94;;;28.88;46.19
30302;BME280;17111;52.130;5.028;2023-09-07T12:31:08;101953.34;;;28.91;45.55
30302;BME280;17111;52.130;5.028;2023-09-07T12:33:34;101954.81;;;28.93;45.89
30302;BME280;17111;52.130;5.028;2023-09-07T12:36:02;101954.44;;;28.96;45.33
30302;BME280;17111;52.130;5.028;2023-09-07T12:38:28;101961.41;;;28.99;45.48
30302;BME280;17111;52.130;5.028;2023-09-07T12:40:55;101949.22;;;29.01;45.25
30302;BME280;17111;52.130;5.028;2023-09-07T12:43:22;101950.91;;;29.02;46.04
30302;BME280;17111;52.130;5.028;2023-09-07T12:45:51;101940.00;;;29.02;45.86
30302;BME280;17111;52.130;5.028;2023-09-07T12:50:45;101944.22;;;29.05;45.46
30302;BME280;17111;52.130;5.028;2023-09-07T12:53:11;101934.97;;;29.06;45.96
30302;BME280;17111;52.130;5.028;2023-09-07T12:55:38;101938.75;;;29.05;45.46
30302;BME280;17111;52.130;5.028;2023-09-07T12:58:05;101937.09;;;29.04;45.91
30302;BME280;17111;52.130;5.028;2023-09-07T13:00:32;101940.00;;;29.02;45.88